sensor_id;sensor_type;location;lat;lon;timestamp;P1;durP1;ratioP1;P2;durP2;ratioP2
23009;SDS011;11671;49.990;8.028;2023-08-24T00:04:31;7.65;;;4.07;;
23009;SDS011;11671;49.990;8.028;2023-08-24T00:06:58;7.35;;;3.13;;
23009;SDS011;11671;49.990;8.028;2023-08-24T00:11:50;7.32;;;3.10;;
23009;SDS011;11671;49.990;8.028;2023-08-24T00:14:17;6.65;;;3.17;;
23009;SDS011;11671;49.990;8.028;2023-08-24T00:19:08;6.93;;;3.25;;
23009;SDS011;11671;49.990;8.028;2023-08-24T00:23:59;7.70;;;4.18;;
23009;SDS011;11671;49.990;8.028;2023-08-24T00:28:50;6.07;;;3.67;;
23009;SDS011;11671;49.990;8.028;2023-08-24T00:33:42;7.30;;;3.53;;
23009;SDS011;11671;49.990;8.028;2023-08-24T00:38:33;6.95;;;3.33;;
23009;SDS011;11671;49.990;8.028;2023-08-24T00:43:25;8.00;;;3.80;;
23009;SDS011;11671;49.990;8.028;2023-08-24T00:45:51;8.77;;;3.42;;
23009;SDS011;11671;49.990;8.028;2023-08-24T00:48:18;4.60;;;2.95;;
23009;SDS011;11671;49.990;8.028;2023-08-24T00:50:44;5.38;;;4.20;;
23009;SDS011;11671;49.990;8.028;2023-08-24T00:55:36;5.03;;;3.00;;
23009;SDS011;11671;49.990;8.028;2023-08-24T01:00:28;4.85;;;3.33;;
23009;SDS011;11671;49.990;8.028;2023-08-24T01:05:19;6.47;;;3.28;;
23009;SDS011;11671;49.990;8.028;2023-08-24T01:10:10;5.95;;;2.85;;
23009;SDS011;11671;49.990;8.028;2023-08-24T01:18:20;6.30;;;3.13;;
23009;SDS011;11671;49.990;8.028;2023-08-24T01:20:48;4.03;;;2.97;;
23009;SDS011;11671;49.990;8.028;2023-08-24T01:26:10;6.90;;;2.78;;
23009;SDS011;11671;49.990;8.028;2023-08-24T01:28:36;6.88;;;3.78;;
23009;SDS011;11671;49.990;8.028;2023-08-24T01:31:03;4.28;;;2.72;;
23009;SDS011;11671;49.990;8.028;2023-08-24T01:33:30;7.07;;;2.45;;
23009;SDS011;11671;49.990;8.028;2023-08-24T01:38:21;7.10;;;3.78;;
23009;SDS011;11671;49.990;8.028;2023-08-24T01:43:20;6.18;;;4.20;;
23009;SDS011;11671;49.990;8.028;2023-08-24T01:45:50;5.18;;;3.40;;
23009;SDS011;11671;49.990;8.028;2023-08-24T01:48:17;4.13;;;2.70;;
23009;SDS011;11671;49.990;8.028;2023-08-24T01:53:09;4.93;;;3.20;;
23009;SDS011;11671;49.990;8.028;2023-08-24T01:58:00;5.78;;;4.88;;
23009;SDS011;11671;49.990;8.028;2023-08-24T02:02:52;4.68;;;3.25;;
23009;SDS011;11671;49.990;8.028;2023-08-24T02:07:43;7.38;;;6.55;;
23009;SDS011;11671;49.990;8.028;2023-08-24T02:12:34;7.75;;;4.15;;
23009;SDS011;11671;49.990;8.028;2023-08-24T02:17:28;7.72;;;6.18;;
23009;SDS011;11671;49.990;8.028;2023-08-24T02:19:55;5.75;;;4.60;;
23009;SDS011;11671;49.990;8.028;2023-08-24T02:22:20;8.50;;;3.92;;
23009;SDS011;11671;49.990;8.028;2023-08-24T02:27:12;5.55;;;4.32;;
23009;SDS011;11671;49.990;8.028;2023-08-24T02:32:04;6.55;;;3.78;;
23009;SDS011;11671;49.990;8.028;2023-08-24T02:36:56;8.93;;;4.60;;
23009;SDS011;11671;49.990;8.028;2023-08-24T02:39:22;6.55;;;3.78;;
23009;SDS011;11671;49.990;8.028;2023-08-24T02:44:13;7.22;;;6.50;;
23009;SDS011;11671;49.990;8.028;2023-08-24T02:49:04;9.40;;;6.88;;
23009;SDS011;11671;49.990;8.028;2023-08-24T02:56:22;6.95;;;5.50;;
23009;SDS011;11671;49.990;8.028;2023-08-24T03:01:13;8.93;;;8.18;;
23009;SDS011;11671;49.990;8.028;2023-08-24T03:06:05;9.02;;;8.13;;
23009;SDS011;11671;49.990;8.028;2023-08-24T03:08:33;6.95;;;6.35;;
23009;SDS011;11671;49.990;8.028;2023-08-24T03:11:00;12.20;;;6.68;;
23009;SDS011;11671;49.990;8.028;2023-08-24T03:13:26;8.10;;;5.57;;
23009;SDS011;11671;49.990;8.028;2023-08-24T03:15:53;7.57;;;5.07;;
23009;SDS011;11671;49.990;8.028;2023-08-24T03:18:19;7.10;;;4.78;;
23009;SDS011;11671;49.990;8.028;2023-08-24T03:23:11;7.63;;;4.47;;
23009;SDS011;11671;49.990;8.028;2023-08-24T03:28:03;8.83;;;4.60;;
23009;SDS011;11671;49.990;8.028;2023-08-24T03:30:34;8.05;;;4.60;;
23009;SDS011;11671;49.990;8.028;2023-08-24T03:33:01;9.65;;;3.80;;
23009;SDS011;11671;49.990;8.028;2023-08-24T03:35:28;5.72;;;4.75;;
23009;SDS011;11671;49.990;8.028;2023-08-24T03:37:55;6.43;;;4.88;;
23009;SDS011;11671;49.990;8.028;2023-08-24T03:42:46;7.80;;;6.18;;
23009;SDS011;11671;49.990;8.028;2023-08-24T03:47:37;6.18;;;5.50;;
23009;SDS011;11671;49.990;8.028;2023-08-24T03:52:29;8.32;;;6.07;;
23009;SDS011;11671;49.990;8.028;2023-08-24T03:57:20;9.65;;;8.75;;
23009;SDS011;11671;49.990;8.028;2023-08-24T04:02:11;9.02;;;8.30;;
23009;SDS011;11671;49.990;8.028;2023-08-24T04:07:02;11.75;;;8.68;;
23009;SDS011;11671;49.990;8.028;2023-08-24T04:11:53;10.48;;;9.55;;
23009;SDS011;11671;49.990;8.028;2023-08-24T04:16:45;11.50;;;9.65;;
23009;SDS011;11671;49.990;8.028;2023-08-24T04:21:36;12.65;;;11.65;;
23009;SDS011;11671;49.990;8.028;2023-08-24T04:26:27;24.75;;;23.20;;
23009;SDS011;11671;49.990;8.028;2023-08-24T04:31:18;21.83;;;20.35;;
23009;SDS011;11671;49.990;8.028;2023-08-24T04:36:09;16.13;;;14.93;;
23009;SDS011;11671;49.990;8.028;2023-08-24T04:41:00;17.38;;;16.10;;
23009;SDS011;11671;49.990;8.028;2023-08-24T04:43:27;19.15;;;18.00;;
23009;SDS011;11671;49.990;8.028;2023-08-24T04:48:22;22.95;;;21.38;;
23009;SDS011;11671;49.990;8.028;2023-08-24T04:50:50;29.10;;;27.48;;
23009;SDS011;11671;49.990;8.028;2023-08-24T04:53:18;29.00;;;27.33;;
23009;SDS011;11671;49.990;8.028;2023-08-24T04:55:44;18.75;;;17.45;;
23009;SDS011;11671;49.990;8.028;2023-08-24T04:58:11;15.65;;;14.43;;
23009;SDS011;11671;49.990;8.028;2023-08-24T05:00:38;21.67;;;20.38;;
23009;SDS011;11671;49.990;8.028;2023-08-24T05:03:05;25.98;;;24.50;;
23009;SDS011;11671;49.990;8.028;2023-08-24T05:05:31;25.52;;;23.58;;
23009;SDS011;11671;49.990;8.028;2023-08-24T05:07:58;32.65;;;30.58;;
23009;SDS011;11671;49.990;8.028;2023-08-24T05:10:26;13.43;;;12.43;;
23009;SDS011;11671;49.990;8.028;2023-08-24T05:12:55;10.82;;;9.38;;
23009;SDS011;11671;49.990;8.028;2023-08-24T05:17:47;14.98;;;13.80;;
23009;SDS011;11671;49.990;8.028;2023-08-24T05:22:38;12.82;;;11.82;;
23009;SDS011;11671;49.990;8.028;2023-08-24T05:25:04;9.70;;;8.75;;
23009;SDS011;11671;49.990;8.028;2023-08-24T05:27:30;10.68;;;9.77;;
23009;SDS011;11671;49.990;8.028;2023-08-24T05:32:23;13.68;;;12.60;;
23009;SDS011;11671;49.990;8.028;2023-08-24T05:34:49;8.70;;;7.78;;
23009;SDS011;11671;49.990;8.028;2023-08-24T05:37:15;11.98;;;10.68;;
23009;SDS011;11671;49.990;8.028;2023-08-24T05:42:07;20.50;;;12.63;;
23009;SDS011;11671;49.990;8.028;2023-08-24T05:44:33;12.73;;;11.77;;
23009;SDS011;11671;49.990;8.028;2023-08-24T05:49:24;12.57;;;11.52;;
23009;SDS011;11671;49.990;8.028;2023-08-24T05:54:16;14.35;;;13.27;;
23009;SDS011;11671;49.990;8.028;2023-08-24T05:56:44;14.40;;;13.40;;
23009;SDS011;11671;49.990;8.028;2023-08-24T05:59:13;10.10;;;9.20;;
23009;SDS011;11671;49.990;8.028;2023-08-24T06:01:39;15.35;;;8.93;;
23009;SDS011;11671;49.990;8.028;2023-08-24T06:04:06;12.63;;;11.13;;
23009;SDS011;11671;49.990;8.028;2023-08-24T06:06:33;13.95;;;9.20;;
23009;SDS011;11671;49.990;8.028;2023-08-24T06:11:24;17.58;;;16.35;;
23009;SDS011;11671;49.990;8.028;2023-08-24T06:16:18;21.95;;;20.52;;
23009;SDS011;11671;49.990;8.028;2023-08-24T06:21:09;20.33;;;18.90;;
23009;SDS011;11671;49.990;8.028;2023-08-24T06:26:01;13.07;;;12.02;;
23009;SDS011;11671;49.990;8.028;2023-08-24T06:30:52;10.43;;;8.68;;
23009;SDS011;11671;49.990;8.028;2023-08-24T06:33:20;12.77;;;11.85;;
23009;SDS011;11671;49.990;8.028;2023-08-24T06:38:11;16.77;;;15.43;;
23009;SDS011;11671;49.990;8.028;2023-08-24T06:40:38;15.20;;;14.20;;
23009;SDS011;11671;49.990;8.028;2023-08-24T06:45:30;15.35;;;14.10;;
23009;SDS011;11671;49.990;8.028;2023-08-24T06:47:56;21.33;;;19.83;;
23009;SDS011;11671;49.990;8.028;2023-08-24T06:52:48;24.33;;;22.80;;
23009;SDS011;11671;49.990;8.028;2023-08-24T06:55:13;46.35;;;43.83;;
23009;SDS011;11671;49.990;8.028;2023-08-24T06:57:39;66.05;;;60.58;;
23009;SDS011;11671;49.990;8.028;2023-08-24T07:00:06;43.92;;;37.65;;
23009;SDS011;11671;49.990;8.028;2023-08-24T07:02:34;29.33;;;25.85;;
23009;SDS011;11671;49.990;8.028;2023-08-24T07:05:01;23.70;;;21.50;;
23009;SDS011;11671;49.990;8.028;2023-08-24T07:07:29;23.70;;;22.15;;
23009;SDS011;11671;49.990;8.028;2023-08-24T07:09:56;21.02;;;19.40;;
23009;SDS011;11671;49.990;8.028;2023-08-24T07:12:21;12.07;;;10.68;;
23009;SDS011;11671;49.990;8.028;2023-08-24T07:17:13;17.88;;;16.08;;
23009;SDS011;11671;49.990;8.028;2023-08-24T07:22:04;15.80;;;14.63;;
23009;SDS011;11671;49.990;8.028;2023-08-24T07:24:29;13.38;;;12.20;;
23009;SDS011;11671;49.990;8.028;2023-08-24T07:26:55;15.65;;;14.60;;
23009;SDS011;11671;49.990;8.028;2023-08-24T07:29:21;19.25;;;18.02;;
23009;SDS011;11671;49.990;8.028;2023-08-24T07:31:47;16.60;;;15.35;;
23009;SDS011;11671;49.990;8.028;2023-08-24T07:34:13;17.58;;;16.17;;
23009;SDS011;11671;49.990;8.028;2023-08-24T07:36:39;19.00;;;17.35;;
23009;SDS011;11671;49.990;8.028;2023-08-24T07:41:30;21.98;;;20.58;;
23009;SDS011;11671;49.990;8.028;2023-08-24T07:43:56;25.33;;;23.63;;
23009;SDS011;11671;49.990;8.028;2023-08-24T07:48:47;24.20;;;22.45;;
23009;SDS011;11671;49.990;8.028;2023-08-24T07:53:38;23.58;;;22.05;;
23009;SDS011;11671;49.990;8.028;2023-08-24T07:56:04;24.45;;;22.98;;
23009;SDS011;11671;49.990;8.028;2023-08-24T08:00:57;27.15;;;25.13;;
23009;SDS011;11671;49.990;8.028;2023-08-24T08:03:23;17.35;;;15.75;;
23009;SDS011;11671;49.990;8.028;2023-08-24T08:08:14;14.85;;;13.55;;
23009;SDS011;11671;49.990;8.028;2023-08-24T08:10:40;14.77;;;13.32;;
23009;SDS011;11671;49.990;8.028;2023-08-24T08:13:06;14.32;;;11.82;;
23009;SDS011;11671;49.990;8.028;2023-08-24T08:15:33;11.80;;;10.68;;
23009;SDS011;11671;49.990;8.028;2023-08-24T08:17:58;11.43;;;10.40;;
23009;SDS011;11671;49.990;8.028;2023-08-24T08:20:24;9.00;;;6.10;;
23009;SDS011;11671;49.990;8.028;2023-08-24T08:22:50;9.85;;;7.45;;
23009;SDS011;11671;49.990;8.028;2023-08-24T08:25:16;1268.03;;;999.90;;
23009;SDS011;11671;49.990;8.028;2023-08-24T08:27:47;1263.38;;;999.90;;
23009;SDS011;11671;49.990;8.028;2023-08-24T08:30:13;10.13;;;9.07;;
23009;SDS011;11671;49.990;8.028;2023-08-24T08:32:39;368.15;;;337.95;;
23009;SDS011;11671;49.990;8.028;2023-08-24T08:35:05;1276.32;;;999.90;;
23009;SDS011;11671;49.990;8.028;2023-08-24T08:37:31;1287.45;;;999.90;;
23009;SDS011;11671;49.990;8.028;2023-08-24T08:39:57;12.90;;;10.60;;
23009;SDS011;11671;49.990;8.028;2023-08-24T08:42:23;8.35;;;7.55;;
23009;SDS011;11671;49.990;8.028;2023-08-24T08:44:50;126.30;;;115.30;;
23009;SDS011;11671;49.990;8.028;2023-08-24T08:47:19;488.90;;;447.73;;
23009;SDS011;11671;49.990;8.028;2023-08-24T08:49:47;483.45;;;443.55;;
23009;SDS011;11671;49.990;8.028;2023-08-24T08:52:13;11.25;;;7.18;;
23009;SDS011;11671;49.990;8.028;2023-08-24T08:54:39;643.95;;;590.22;;
23009;SDS011;11671;49.990;8.028;2023-08-24T08:57:05;1304.72;;;999.90;;
23009;SDS011;11671;49.990;8.028;2023-08-24T08:59:32;445.02;;;406.77;;
23009;SDS011;11671;49.990;8.028;2023-08-24T09:02:02;13.50;;;11.75;;
23009;SDS011;11671;49.990;8.028;2023-08-24T09:04:31;16.20;;;13.90;;
23009;SDS011;11671;49.990;8.028;2023-08-24T09:06:58;1315.10;;;999.90;;
23009;SDS011;11671;49.990;8.028;2023-08-24T09:09:29;54.13;;;49.20;;
23009;SDS011;11671;49.990;8.028;2023-08-24T09:11:58;107.65;;;97.82;;
23009;SDS011;11671;49.990;8.028;2023-08-24T09:14:24;9.27;;;5.40;;
23009;SDS011;11671;49.990;8.028;2023-08-24T09:16:50;7.00;;;4.75;;
23009;SDS011;11671;49.990;8.028;2023-08-24T09:19:15;15.07;;;5.45;;
23009;SDS011;11671;49.990;8.028;2023-08-24T09:21:41;12.82;;;5.00;;
23009;SDS011;11671;49.990;8.028;2023-08-24T09:24:07;13.07;;;4.57;;
23009;SDS011;11671;49.990;8.028;2023-08-24T09:26:37;9.35;;;4.80;;
23009;SDS011;11671;49.990;8.028;2023-08-24T09:29:11;6.18;;;4.25;;
23009;SDS011;11671;49.990;8.028;2023-08-24T09:31:41;14.90;;;4.57;;
23009;SDS011;11671;49.990;8.028;2023-08-24T09:34:10;9.23;;;4.50;;
23009;SDS011;11671;49.990;8.028;2023-08-24T09:36:36;9.13;;;4.93;;
23009;SDS011;11671;49.990;8.028;2023-08-24T09:39:04;8.88;;;4.90;;
23009;SDS011;11671;49.990;8.028;2023-08-24T09:41:49;1228.45;;;999.90;;
23009;SDS011;11671;49.990;8.028;2023-08-24T09:44:18;921.83;;;844.90;;
23009;SDS011;11671;49.990;8.028;2023-08-24T09:46:44;8.75;;;4.35;;
23009;SDS011;11671;49.990;8.028;2023-08-24T09:49:10;19.08;;;11.43;;
23009;SDS011;11671;49.990;8.028;2023-08-24T09:51:37;7.75;;;6.82;;
23009;SDS011;11671;49.990;8.028;2023-08-24T09:54:05;15.13;;;13.50;;
23009;SDS011;11671;49.990;8.028;2023-08-24T09:56:38;10.95;;;3.40;;
23009;SDS011;11671;49.990;8.028;2023-08-24T10:01:37;4.72;;;3.20;;
23009;SDS011;11671;49.990;8.028;2023-08-24T10:04:04;8.07;;;7.47;;
23009;SDS011;11671;49.990;8.028;2023-08-24T10:06:31;40.97;;;37.05;;
23009;SDS011;11671;49.990;8.028;2023-08-24T10:08:58;5.28;;;3.00;;
23009;SDS011;11671;49.990;8.028;2023-08-24T10:11:30;7.93;;;3.15;;
23009;SDS011;11671;49.990;8.028;2023-08-24T10:16:44;6.20;;;3.28;;
23009;SDS011;11671;49.990;8.028;2023-08-24T10:19:12;6.70;;;2.95;;
23009;SDS011;11671;49.990;8.028;2023-08-24T10:21:38;7.05;;;2.50;;
23009;SDS011;11671;49.990;8.028;2023-08-24T10:24:05;7.82;;;3.63;;
23009;SDS011;11671;49.990;8.028;2023-08-24T10:26:33;8.85;;;3.00;;
23009;SDS011;11671;49.990;8.028;2023-08-24T10:28:59;6.00;;;3.15;;
23009;SDS011;11671;49.990;8.028;2023-08-24T10:31:25;4.93;;;4.15;;
23009;SDS011;11671;49.990;8.028;2023-08-24T10:33:53;4.63;;;2.60;;
23009;SDS011;11671;49.990;8.028;2023-08-24T10:36:20;7.30;;;3.67;;
23009;SDS011;11671;49.990;8.028;2023-08-24T10:38:47;7.93;;;3.00;;
23009;SDS011;11671;49.990;8.028;2023-08-24T10:41:13;4.70;;;2.60;;
23009;SDS011;11671;49.990;8.028;2023-08-24T10:43:48;5.43;;;3.15;;
23009;SDS011;11671;49.990;8.028;2023-08-24T10:46:14;6.20;;;3.00;;
23009;SDS011;11671;49.990;8.028;2023-08-24T10:54:06;9.15;;;2.85;;
23009;SDS011;11671;49.990;8.028;2023-08-24T10:56:34;5.15;;;2.90;;
23009;SDS011;11671;49.990;8.028;2023-08-24T10:59:10;6.53;;;3.03;;
23009;SDS011;11671;49.990;8.028;2023-08-24T11:01:55;5.25;;;2.67;;
23009;SDS011;11671;49.990;8.028;2023-08-24T11:04:21;7.30;;;3.03;;
23009;SDS011;11671;49.990;8.028;2023-08-24T11:06:51;4.13;;;2.53;;
23009;SDS011;11671;49.990;8.028;2023-08-24T11:09:21;10.75;;;3.60;;
23009;SDS011;11671;49.990;8.028;2023-08-24T11:11:58;4.75;;;3.00;;
23009;SDS011;11671;49.990;8.028;2023-08-24T11:14:28;112.53;;;103.28;;
23009;SDS011;11671;49.990;8.028;2023-08-24T11:17:17;11.30;;;7.28;;
23009;SDS011;11671;49.990;8.028;2023-08-24T11:19:51;5.75;;;2.90;;
23009;SDS011;11671;49.990;8.028;2023-08-24T11:22:18;4.75;;;3.45;;
23009;SDS011;11671;49.990;8.028;2023-08-24T11:24:44;7.57;;;3.22;;
23009;SDS011;11671;49.990;8.028;2023-08-24T11:27:10;4.25;;;2.63;;
23009;SDS011;11671;49.990;8.028;2023-08-24T11:29:36;690.35;;;632.65;;
23009;SDS011;11671;49.990;8.028;2023-08-24T11:32:02;1299.88;;;999.90;;
23009;SDS011;11671;49.990;8.028;2023-08-24T11:34:28;8.52;;;5.13;;
23009;SDS011;11671;49.990;8.028;2023-08-24T11:36:54;5.75;;;3.63;;
23009;SDS011;11671;49.990;8.028;2023-08-24T11:39:21;1009.88;;;926.58;;
23009;SDS011;11671;49.990;8.028;2023-08-24T11:42:04;199.02;;;181.35;;
23009;SDS011;11671;49.990;8.028;2023-08-24T11:44:49;10.93;;;4.78;;
23009;SDS011;11671;49.990;8.028;2023-08-24T11:47:15;6.57;;;3.95;;
23009;SDS011;11671;49.990;8.028;2023-08-24T11:49:41;7.07;;;3.75;;
23009;SDS011;11671;49.990;8.028;2023-08-24T11:52:07;84.15;;;77.68;;
23009;SDS011;11671;49.990;8.028;2023-08-24T11:54:33;5.90;;;4.32;;
23009;SDS011;11671;49.990;8.028;2023-08-24T11:57:05;8.48;;;4.47;;
23009;SDS011;11671;49.990;8.028;2023-08-24T11:59:31;7.35;;;4.65;;
23009;SDS011;11671;49.990;8.028;2023-08-24T12:01:57;7.18;;;4.97;;
23009;SDS011;11671;49.990;8.028;2023-08-24T12:04:23;5.70;;;4.32;;
23009;SDS011;11671;49.990;8.028;2023-08-24T12:06:49;8.13;;;5.68;;
23009;SDS011;11671;49.990;8.028;2023-08-24T12:09:15;5.15;;;4.05;;
23009;SDS011;11671;49.990;8.028;2023-08-24T12:11:41;819.55;;;747.88;;
23009;SDS011;11671;49.990;8.028;2023-08-24T12:14:06;562.20;;;512.13;;
23009;SDS011;11671;49.990;8.028;2023-08-24T12:16:34;771.58;;;705.00;;
23009;SDS011;11671;49.990;8.028;2023-08-24T12:19:00;956.47;;;874.65;;
23009;SDS011;11671;49.990;8.028;2023-08-24T12:21:29;946.75;;;867.30;;
23009;SDS011;11671;49.990;8.028;2023-08-24T12:26:30;6.90;;;5.63;;
23009;SDS011;11671;49.990;8.028;2023-08-24T12:29:00;7.32;;;4.45;;
23009;SDS011;11671;49.990;8.028;2023-08-24T12:31:28;8.23;;;4.60;;
23009;SDS011;11671;49.990;8.028;2023-08-24T12:34:01;9.43;;;6.32;;
23009;SDS011;11671;49.990;8.028;2023-08-24T12:36:32;8.77;;;6.32;;
23009;SDS011;11671;49.990;8.028;2023-08-24T12:38:58;1001.97;;;917.58;;
23009;SDS011;11671;49.990;8.028;2023-08-24T12:41:24;16.88;;;15.38;;
23009;SDS011;11671;49.990;8.028;2023-08-24T12:43:50;6.63;;;5.93;;
23009;SDS011;11671;49.990;8.028;2023-08-24T12:46:16;7.45;;;4.70;;
23009;SDS011;11671;49.990;8.028;2023-08-24T12:48:42;7.68;;;3.63;;
23009;SDS011;11671;49.990;8.028;2023-08-24T12:51:08;6.63;;;3.50;;
23009;SDS011;11671;49.990;8.028;2023-08-24T12:53:33;181.20;;;165.30;;
23009;SDS011;11671;49.990;8.028;2023-08-24T12:55:59;863.63;;;792.33;;
23009;SDS011;11671;49.990;8.028;2023-08-24T12:58:24;983.05;;;901.10;;
23009;SDS011;11671;49.990;8.028;2023-08-24T13:00:50;934.00;;;855.20;;
23009;SDS011;11671;49.990;8.028;2023-08-24T13:03:16;10.68;;;9.80;;
23009;SDS011;11671;49.990;8.028;2023-08-24T13:05:41;545.35;;;499.42;;
23009;SDS011;11671;49.990;8.028;2023-08-24T13:08:07;932.95;;;855.05;;
23009;SDS011;11671;49.990;8.028;2023-08-24T13:10:33;882.00;;;809.08;;
23009;SDS011;11671;49.990;8.028;2023-08-24T13:12:59;8.30;;;5.03;;
23009;SDS011;11671;49.990;8.028;2023-08-24T13:15:25;4.80;;;4.05;;
23009;SDS011;11671;49.990;8.028;2023-08-24T13:17:51;10.82;;;9.13;;
23009;SDS011;11671;49.990;8.028;2023-08-24T13:20:16;11.35;;;6.13;;
23009;SDS011;11671;49.990;8.028;2023-08-24T13:22:42;7.85;;;5.22;;
23009;SDS011;11671;49.990;8.028;2023-08-24T13:25:08;1063.88;;;974.97;;
23009;SDS011;11671;49.990;8.028;2023-08-24T13:27:34;827.45;;;759.30;;
23009;SDS011;11671;49.990;8.028;2023-08-24T13:30:00;13.50;;;11.55;;
23009;SDS011;11671;49.990;8.028;2023-08-24T13:32:27;6.93;;;6.22;;
23009;SDS011;11671;49.990;8.028;2023-08-24T13:34:53;10.35;;;6.53;;
23009;SDS011;11671;49.990;8.028;2023-08-24T13:37:20;8.20;;;6.35;;
23009;SDS011;11671;49.990;8.028;2023-08-24T13:39:48;1041.18;;;954.05;;
23009;SDS011;11671;49.990;8.028;2023-08-24T13:42:16;1044.70;;;957.40;;
23009;SDS011;11671;49.990;8.028;2023-08-24T13:44:42;711.35;;;653.42;;
23009;SDS011;11671;49.990;8.028;2023-08-24T13:47:08;12.05;;;6.65;;
23009;SDS011;11671;49.990;8.028;2023-08-24T13:49:33;6.22;;;5.63;;
23009;SDS011;11671;49.990;8.028;2023-08-24T13:52:00;94.13;;;85.95;;
23009;SDS011;11671;49.990;8.028;2023-08-24T13:54:25;14.40;;;13.25;;
23009;SDS011;11671;49.990;8.028;2023-08-24T13:56:51;14.10;;;6.30;;
23009;SDS011;11671;49.990;8.028;2023-08-24T13:59:19;13.52;;;12.52;;
23009;SDS011;11671;49.990;8.028;2023-08-24T14:01:46;1043.60;;;955.25;;
23009;SDS011;11671;49.990;8.028;2023-08-24T14:04:11;1142.47;;;999.90;;
23009;SDS011;11671;49.990;8.028;2023-08-24T14:06:37;666.47;;;609.72;;
23009;SDS011;11671;49.990;8.028;2023-08-24T14:09:03;871.42;;;800.17;;
23009;SDS011;11671;49.990;8.028;2023-08-24T14:11:29;944.75;;;867.22;;
23009;SDS011;11671;49.990;8.028;2023-08-24T14:13:55;483.23;;;442.92;;
23009;SDS011;11671;49.990;8.028;2023-08-24T14:16:22;901.45;;;825.78;;
23009;SDS011;11671;49.990;8.028;2023-08-24T14:18:48;84.93;;;77.35;;
23009;SDS011;11671;49.990;8.028;2023-08-24T14:21:15;8.55;;;7.25;;
23009;SDS011;11671;49.990;8.028;2023-08-24T14:23:41;55.28;;;50.63;;
23009;SDS011;11671;49.990;8.028;2023-08-24T14:26:06;21.33;;;19.38;;
23009;SDS011;11671;49.990;8.028;2023-08-24T14:31:19;502.60;;;460.45;;
23009;SDS011;11671;49.990;8.028;2023-08-24T14:33:45;888.53;;;814.58;;
23009;SDS011;11671;49.990;8.028;2023-08-24T14:36:11;778.45;;;713.92;;
23009;SDS011;11671;49.990;8.028;2023-08-24T14:38:39;1037.80;;;952.05;;
23009;SDS011;11671;49.990;8.028;2023-08-24T14:41:09;1006.10;;;923.00;;
23009;SDS011;11671;49.990;8.028;2023-08-24T14:43:36;1022.65;;;938.05;;
23009;SDS011;11671;49.990;8.028;2023-08-24T14:46:02;1028.25;;;943.13;;
23009;SDS011;11671;49.990;8.028;2023-08-24T14:48:29;1093.30;;;999.90;;
23009;SDS011;11671;49.990;8.028;2023-08-24T14:50:55;1089.45;;;999.67;;
23009;SDS011;11671;49.990;8.028;2023-08-24T14:53:21;1107.40;;;999.90;;
23009;SDS011;11671;49.990;8.028;2023-08-24T14:55:48;1140.50;;;999.90;;
23009;SDS011;11671;49.990;8.028;2023-08-24T14:58:13;1138.95;;;999.90;;
23009;SDS011;11671;49.990;8.028;2023-08-24T15:00:39;523.17;;;482.17;;
23009;SDS011;11671;49.990;8.028;2023-08-24T15:03:05;480.88;;;444.02;;
23009;SDS011;11671;49.990;8.028;2023-08-24T15:05:30;347.70;;;322.50;;
23009;SDS011;11671;49.990;8.028;2023-08-24T15:08:01;281.52;;;261.55;;
23009;SDS011;11671;49.990;8.028;2023-08-24T15:10:27;207.07;;;193.82;;
23009;SDS011;11671;49.990;8.028;2023-08-24T15:12:53;179.55;;;168.63;;
23009;SDS011;11671;49.990;8.028;2023-08-24T15:15:18;156.73;;;147.68;;
23009;SDS011;11671;49.990;8.028;2023-08-24T15:17:44;158.85;;;149.57;;
23009;SDS011;11671;49.990;8.028;2023-08-24T15:20:10;143.48;;;135.35;;
23009;SDS011;11671;49.990;8.028;2023-08-24T15:22:38;116.85;;;110.47;;
23009;SDS011;11671;49.990;8.028;2023-08-24T15:25:04;174.98;;;164.70;;
23009;SDS011;11671;49.990;8.028;2023-08-24T15:27:30;246.65;;;230.35;;
23009;SDS011;11671;49.990;8.028;2023-08-24T15:29:56;233.05;;;218.23;;
23009;SDS011;11671;49.990;8.028;2023-08-24T15:32:23;156.52;;;147.60;;
23009;SDS011;11671;49.990;8.028;2023-08-24T15:34:49;261.80;;;244.55;;
23009;SDS011;11671;49.990;8.028;2023-08-24T15:37:14;195.30;;;183.60;;
23009;SDS011;11671;49.990;8.028;2023-08-24T15:39:40;217.30;;;203.98;;
23009;SDS011;11671;49.990;8.028;2023-08-24T15:42:06;194.88;;;183.13;;
23009;SDS011;11671;49.990;8.028;2023-08-24T15:44:33;259.75;;;242.85;;
23009;SDS011;11671;49.990;8.028;2023-08-24T15:46:59;208.35;;;195.40;;
23009;SDS011;11671;49.990;8.028;2023-08-24T15:49:25;179.68;;;169.13;;
23009;SDS011;11671;49.990;8.028;2023-08-24T15:51:52;176.27;;;165.88;;
23009;SDS011;11671;49.990;8.028;2023-08-24T15:54:18;189.95;;;178.45;;
23009;SDS011;11671;49.990;8.028;2023-08-24T15:56:44;172.02;;;162.00;;
23009;SDS011;11671;49.990;8.028;2023-08-24T15:59:11;188.35;;;177.48;;
23009;SDS011;11671;49.990;8.028;2023-08-24T16:01:37;12.75;;;11.48;;
23009;SDS011;11671;49.990;8.028;2023-08-24T16:04:04;12.82;;;9.70;;
23009;SDS011;11671;49.990;8.028;2023-08-24T16:06:30;9.57;;;8.68;;
23009;SDS011;11671;49.990;8.028;2023-08-24T16:08:56;7.88;;;6.60;;
23009;SDS011;11671;49.990;8.028;2023-08-24T16:11:22;11.05;;;8.50;;
23009;SDS011;11671;49.990;8.028;2023-08-24T16:13:48;8.98;;;7.68;;
23009;SDS011;11671;49.990;8.028;2023-08-24T16:16:14;14.23;;;8.70;;
23009;SDS011;11671;49.990;8.028;2023-08-24T16:18:40;7.55;;;6.88;;
23009;SDS011;11671;49.990;8.028;2023-08-24T16:21:05;12.02;;;10.80;;
23009;SDS011;11671;49.990;8.028;2023-08-24T16:23:31;6.72;;;6.05;;
23009;SDS011;11671;49.990;8.028;2023-08-24T16:25:57;11.43;;;9.73;;
23009;SDS011;11671;49.990;8.028;2023-08-24T16:28:23;10.10;;;8.10;;
23009;SDS011;11671;49.990;8.028;2023-08-24T16:30:50;12.18;;;8.50;;
23009;SDS011;11671;49.990;8.028;2023-08-24T16:33:16;9.82;;;9.02;;
23009;SDS011;11671;49.990;8.028;2023-08-24T16:35:46;10.20;;;9.45;;
23009;SDS011;11671;49.990;8.028;2023-08-24T16:38:12;9.65;;;7.57;;
23009;SDS011;11671;49.990;8.028;2023-08-24T16:40:38;8.43;;;7.30;;
23009;SDS011;11671;49.990;8.028;2023-08-24T16:43:04;7.90;;;7.20;;
23009;SDS011;11671;49.990;8.028;2023-08-24T16:45:30;9.23;;;6.80;;
23009;SDS011;11671;49.990;8.028;2023-08-24T16:47:56;7.35;;;6.55;;
23009;SDS011;11671;49.990;8.028;2023-08-24T16:50:21;7.47;;;6.72;;
23009;SDS011;11671;49.990;8.028;2023-08-24T16:52:47;166.65;;;157.20;;
23009;SDS011;11671;49.990;8.028;2023-08-24T16:55:13;176.65;;;166.27;;
23009;SDS011;11671;49.990;8.028;2023-08-24T16:57:39;179.40;;;168.90;;
23009;SDS011;11671;49.990;8.028;2023-08-24T17:00:05;12.65;;;11.68;;
23009;SDS011;11671;49.990;8.028;2023-08-24T17:02:31;9.63;;;8.77;;
23009;SDS011;11671;49.990;8.028;2023-08-24T17:04:57;12.63;;;11.40;;
23009;SDS011;11671;49.990;8.028;2023-08-24T17:07:23;22.63;;;21.00;;
23009;SDS011;11671;49.990;8.028;2023-08-24T17:09:49;203.88;;;191.40;;
23009;SDS011;11671;49.990;8.028;2023-08-24T17:12:15;38.88;;;35.83;;
23009;SDS011;11671;49.990;8.028;2023-08-24T17:14:42;71.25;;;66.75;;
23009;SDS011;11671;49.990;8.028;2023-08-24T17:17:08;28.83;;;26.95;;
23009;SDS011;11671;49.990;8.028;2023-08-24T17:19:36;23.55;;;21.92;;
23009;SDS011;11671;49.990;8.028;2023-08-24T17:22:02;24.50;;;22.48;;
23009;SDS011;11671;49.990;8.028;2023-08-24T17:24:28;19.63;;;18.02;;
23009;SDS011;11671;49.990;8.028;2023-08-24T17:26:54;26.25;;;24.45;;
23009;SDS011;11671;49.990;8.028;2023-08-24T17:29:20;40.00;;;37.75;;